Portada
METAR-TAF:

METAR-TAF

Aeropuertos :

Kosrae, Micronesia

Aeropuerto Internacional de Kosrae

latitud: 05-21N, longitud: 162-57E, altitud: 3 m

Observación

El informe se hizo hace 49 minutos, a las 22:50 UTC
Viento 4 kt del sur
Temperatura 27°C
Humedad 89%
Presión 1009 hPa
Visibilidad: 16.1 km
Nubes dispersas a una altura de 1600 ft, Cumulonimbus.
Cielo nuboso a una altura de 13000 ft
Cielo cubierto a una altura de 29000 ft

METAR: PTSA 202250Z 19004KT 10SM SCT016CB BKN130 OVC290 27/25 A2980 RMK CB NE-SE MOV N

Hora: 10:39 (23:39 UTC)

Pronóstico

El informe se hizo hace 50 minutos, a las 22:49 UTC
Pronóstico válido del 20 a las 23 UTC al 21 a las 18 UTC
Viento 9 kt del sur
Visibilidad: 10 km
Cielo nuboso a una altura de 1500 ft
Cielo nuboso a una altura de 12000 ft
chaparrones en las proximidades

TAF: PTSA 202249Z 2023/2118 18009KT P6SM VCSH BKN015 BKN120

Observaciones y pronósticos meteorológicos de más de 4000 aeropuertos (mensajes METAR y TAF).

Los puntos amarillos y rojos representan las estaciones disponibles.

Ponga el ratón en el punto deseado para ver el nombre de la estación.

Haga clic para ver las observaciones y los pronósticos meteorológicos.

Para cambiar el mapa : haga clic en los botones verdes con una cruz de color negro para hacer un zoom, en el botón verde con un guión para alejar o en las flechas verdes para mapas adyacentes.


METAR-TAF: